Terminal Aerodrome Forecast
Issued by NWS

Home | Current Version | Previous Version | Graphics & Text | Print | Product List | Glossary Off
Versions: 1 2 3 4 5 6 7 8 9 10 11 12 13 14 15 16 17 18 19 20 21

000
FTUS43 KMPX 280812 AAB
TAFRWF
TAF AMD
KRWF 280812Z 2808/2906 14011KT P6SM SCT060
     FM280900 15012G18KT P6SM VCTS BKN050CB
      TEMPO 2810/2813 2SM TSRA OVC015CB
     FM281400 16016G23KT 6SM -SHRA BR OVC025
     FM281600 19018G25KT P6SM SCT030 BKN040
     FM282200 25015G23KT P6SM BKN045=

USA.gov is the U.S. government's official web portal to all federal, state and local government web resources and services.